createdAt,value
2023-01-30T00:01:19.502Z,12.53
2023-01-30T00:03:47.823Z,13.23
2023-01-30T00:06:17.655Z,11.90
2023-01-30T00:08:46.046Z,11.90
2023-01-30T00:11:16.782Z,12.00
2023-01-30T00:13:45.450Z,12.30
2023-01-30T00:16:14.123Z,12.33
2023-01-30T00:18:42.973Z,11.27
2023-01-30T00:21:13.059Z,11.43
2023-01-30T00:23:43.445Z,11.80
2023-01-30T00:26:12.633Z,7.00
2023-01-30T00:28:41.156Z,11.90
2023-01-30T00:31:10.727Z,12.53
2023-01-30T00:33:40.007Z,13.43
2023-01-30T00:36:09.165Z,11.97
2023-01-30T00:38:37.447Z,9.77
2023-01-30T00:41:07.282Z,12.80
2023-01-30T00:43:53.245Z,11.87
2023-01-30T00:46:45.605Z,11.60
2023-01-30T00:49:14.166Z,12.20
2023-01-30T00:51:42.489Z,12.83
2023-01-30T00:54:10.833Z,11.70
2023-01-30T00:56:40.491Z,12.90
2023-01-30T00:59:08.928Z,13.73
2023-01-30T01:01:37.911Z,12.10
2023-01-30T01:04:06.528Z,12.70
2023-01-30T01:06:34.636Z,12.10
2023-01-30T01:09:02.908Z,11.90
2023-01-30T01:11:31.448Z,13.43
2023-01-30T01:14:02.516Z,11.83
2023-01-30T01:16:32.723Z,12.63
2023-01-30T01:19:01.622Z,12.60
2023-01-30T01:21:30.240Z,12.43
2023-01-30T01:24:00.603Z,12.30
2023-01-30T01:26:29.350Z,13.00
2023-01-30T01:28:58.598Z,13.50
2023-01-30T01:31:28.694Z,12.23
2023-01-30T01:33:57.543Z,11.83
2023-01-30T01:36:54.258Z,12.17
2023-01-30T01:39:14.027Z,11.07
2023-01-30T01:41:41.146Z,13.20
2023-01-30T01:44:10.818Z,11.77
2023-01-30T01:46:44.926Z,11.33
2023-01-30T01:49:18.433Z,11.20
2023-01-30T01:51:54.297Z,12.27
2023-01-30T01:54:27.359Z,11.13
2023-01-30T01:56:55.596Z,11.57
2023-01-30T01:59:28.923Z,11.87
2023-01-30T02:02:04.804Z,11.87
2023-01-30T02:04:51.381Z,11.27
2023-01-30T02:07:21.293Z,11.60
2023-01-30T02:09:50.389Z,10.63
2023-01-30T02:12:19.293Z,11.20
2023-01-30T02:14:49.877Z,11.90
2023-01-30T02:17:19.858Z,10.93
2023-01-30T02:19:53.417Z,11.37
2023-01-30T02:22:49.186Z,9.40
2023-01-30T02:25:56.491Z,11.93
2023-01-30T02:28:44.848Z,11.17
2023-01-30T02:31:25.820Z,9.80
2023-01-30T02:34:05.100Z,9.57
2023-01-30T02:36:47.627Z,11.00
2023-01-30T02:39:27.882Z,11.10
2023-01-30T02:42:05.920Z,9.73
2023-01-30T02:44:41.776Z,10.13
2023-01-30T02:47:16.061Z,11.43
2023-01-30T02:49:48.903Z,11.10
2023-01-30T02:52:18.596Z,11.23
2023-01-30T02:54:46.610Z,10.77
2023-01-30T02:57:20.447Z,10.87
2023-01-30T02:59:50.687Z,10.73
2023-01-30T03:02:52.519Z,9.30
2023-01-30T03:05:36.552Z,10.13
2023-01-30T03:08:15.913Z,8.50
2023-01-30T03:10:52.935Z,10.07
2023-01-30T03:13:29.633Z,9.50
2023-01-30T03:16:04.771Z,9.47
2023-01-30T03:18:53.683Z,10.30
2023-01-30T03:21:26.131Z,11.03
2023-01-30T03:23:54.311Z,8.70
2023-01-30T03:26:25.846Z,9.23
2023-01-30T03:28:54.739Z,9.97
2023-01-30T03:31:22.997Z,9.20
2023-01-30T03:33:52.493Z,8.77
2023-01-30T03:36:20.776Z,10.30
2023-01-30T03:38:48.865Z,9.83
2023-01-30T03:41:16.900Z,8.20
2023-01-30T03:43:44.918Z,9.10
2023-01-30T03:46:12.843Z,9.83
2023-01-30T03:48:40.938Z,9.67
2023-01-30T03:51:10.336Z,8.73
2023-01-30T03:53:38.292Z,10.10
2023-01-30T03:56:06.789Z,9.23
2023-01-30T03:58:34.821Z,9.40
2023-01-30T04:01:03.170Z,9.67
2023-01-30T04:03:31.227Z,8.83
2023-01-30T04:05:59.230Z,9.10
2023-01-30T04:08:28.702Z,9.20
2023-01-30T04:10:56.619Z,9.17
2023-01-30T04:13:25.012Z,10.00
2023-01-30T04:15:53.098Z,9.33
2023-01-30T04:18:21.067Z,10.30
2023-01-30T04:20:48.991Z,9.17
2023-01-30T04:23:17.395Z,9.53
2023-01-30T04:25:49.320Z,9.87
2023-01-30T04:28:18.186Z,8.70
2023-01-30T04:30:46.244Z,9.70
2023-01-30T04:33:14.304Z,8.73
2023-01-30T04:35:42.248Z,9.67
2023-01-30T04:38:10.198Z,10.53
2023-01-30T04:40:38.117Z,8.37
2023-01-30T04:43:07.563Z,8.30
2023-01-30T04:45:35.496Z,9.00
2023-01-30T04:48:03.505Z,7.77
2023-01-30T04:50:31.443Z,7.57
2023-01-30T04:52:59.430Z,8.37
2023-01-30T04:55:30.204Z,7.37
2023-01-30T04:57:58.410Z,6.83
2023-01-30T05:00:28.327Z,7.43
2023-01-30T05:02:56.897Z,6.33
2023-01-30T05:05:25.506Z,8.20
2023-01-30T05:07:53.511Z,7.37
2023-01-30T05:10:22.510Z,8.10
2023-01-30T05:12:50.505Z,8.67
2023-01-30T05:15:18.967Z,7.43
2023-01-30T05:17:48.654Z,7.70
2023-01-30T05:20:16.774Z,8.17
2023-01-30T05:22:44.809Z,7.50
2023-01-30T05:25:13.332Z,7.30
2023-01-30T05:27:44.051Z,8.87
2023-01-30T05:30:12.943Z,7.70
2023-01-30T05:32:40.924Z,9.10
2023-01-30T05:35:11.047Z,8.67
2023-01-30T05:37:39.045Z,8.77
2023-01-30T05:40:08.993Z,8.30
2023-01-30T05:42:37.117Z,8.90
2023-01-30T05:45:05.574Z,8.90
2023-01-30T05:47:33.761Z,8.73
2023-01-30T05:50:01.767Z,8.80
2023-01-30T05:52:31.383Z,8.00
2023-01-30T05:54:59.828Z,9.50
2023-01-30T05:57:28.718Z,9.63
2023-01-30T05:59:58.839Z,8.87
2023-01-30T06:02:26.860Z,8.60
2023-01-30T06:04:54.861Z,9.53
2023-01-30T06:07:23.363Z,9.80
2023-01-30T06:09:54.378Z,8.07
2023-01-30T06:12:22.472Z,9.50
2023-01-30T06:14:50.611Z,9.20
2023-01-30T06:17:18.691Z,9.00
2023-01-30T06:19:46.724Z,9.70
2023-01-30T06:22:14.753Z,10.13
2023-01-30T06:24:56.672Z,9.47
2023-01-30T06:27:32.299Z,10.00
2023-01-30T06:30:00.542Z,9.53
2023-01-30T06:32:45.746Z,10.33
2023-01-30T06:35:13.813Z,9.20
2023-01-30T06:37:41.883Z,9.20
2023-01-30T06:40:13.351Z,9.30
2023-01-30T06:42:46.245Z,8.43
2023-01-30T06:45:21.003Z,9.60
2023-01-30T06:47:58.758Z,8.57
2023-01-30T06:50:34.714Z,8.33
2023-01-30T06:53:05.178Z,8.03
2023-01-30T06:55:35.894Z,7.27
2023-01-30T06:58:05.432Z,7.40
2023-01-30T07:00:34.367Z,6.83
2023-01-30T07:03:02.623Z,7.90
2023-01-30T07:05:30.621Z,8.80
2023-01-30T07:07:58.896Z,8.20
2023-01-30T07:10:27.094Z,7.07
2023-01-30T07:12:56.723Z,8.20
2023-01-30T07:15:24.841Z,7.60
2023-01-30T07:17:53.434Z,7.30
2023-01-30T07:20:21.753Z,7.60
2023-01-30T07:22:55.230Z,7.37
2023-01-30T07:25:25.063Z,6.53
2023-01-30T07:27:53.410Z,7.63
2023-01-30T07:30:23.096Z,6.80
2023-01-30T07:32:51.846Z,6.53
2023-01-30T07:35:20.311Z,6.53
2023-01-30T07:37:48.736Z,7.43
2023-01-30T07:40:19.328Z,7.03
2023-01-30T07:42:58.282Z,6.77
2023-01-30T07:45:31.124Z,6.27
2023-01-30T07:48:02.363Z,7.23
2023-01-30T07:50:31.391Z,7.00
2023-01-30T07:52:59.973Z,6.50
2023-01-30T07:55:28.606Z,6.27
2023-01-30T07:57:59.846Z,6.53
2023-01-30T08:00:29.244Z,6.87
2023-01-30T08:02:57.216Z,6.13
2023-01-30T08:05:25.411Z,6.20
2023-01-30T08:07:53.711Z,6.67
2023-01-30T08:10:22.001Z,6.63
2023-01-30T08:12:51.529Z,5.73
2023-01-30T08:15:21.837Z,5.43
2023-01-30T08:17:57.080Z,6.43
2023-01-30T08:20:26.691Z,7.03
2023-01-30T08:22:54.971Z,6.10
2023-01-30T08:25:23.536Z,5.33
2023-01-30T08:27:51.697Z,5.77
2023-01-30T08:30:21.409Z,5.53
2023-01-30T08:32:50.064Z,4.37
2023-01-30T08:35:19.579Z,6.03
2023-01-30T08:37:47.583Z,5.17
2023-01-30T08:40:16.666Z,5.27
2023-01-30T08:42:45.330Z,4.57
2023-01-30T08:45:13.674Z,5.53
2023-01-30T08:47:41.780Z,3.73
2023-01-30T08:50:11.068Z,5.00
2023-01-30T08:52:40.513Z,5.83
2023-01-30T08:55:10.737Z,4.80
2023-01-30T08:57:42.539Z,5.10
2023-01-30T09:00:13.047Z,5.87
2023-01-30T09:02:43.055Z,5.07
2023-01-30T09:05:14.825Z,4.63
2023-01-30T09:07:44.909Z,6.03
2023-01-30T09:10:13.130Z,6.90
2023-01-30T09:12:41.598Z,6.20
2023-01-30T09:15:11.295Z,6.23
2023-01-30T09:17:39.639Z,5.93
2023-01-30T09:20:09.869Z,5.43
2023-01-30T09:22:38.271Z,6.80
2023-01-30T09:25:09.211Z,5.63
2023-01-30T09:27:37.612Z,7.03
2023-01-30T09:30:07.606Z,6.87
2023-01-30T09:32:39.198Z,5.60
2023-01-30T09:35:14.407Z,6.53
2023-01-30T09:38:11.366Z,5.90
2023-01-30T09:40:50.654Z,6.10
2023-01-30T09:43:36.595Z,6.60
2023-01-30T09:46:14.597Z,5.63
2023-01-30T09:48:53.732Z,5.60
2023-01-30T09:51:34.168Z,6.70
2023-01-30T09:54:17.137Z,4.67
2023-01-30T09:56:46.526Z,6.23
2023-01-30T09:59:23.122Z,5.37
2023-01-30T10:02:21.551Z,4.70
2023-01-30T10:05:00.980Z,5.67
2023-01-30T10:07:50.252Z,5.07
2023-01-30T10:10:25.755Z,4.60
2023-01-30T10:13:08.709Z,4.57
2023-01-30T10:15:53.303Z,4.60
2023-01-30T10:18:55.152Z,4.50
2023-01-30T10:21:33.457Z,3.30
2023-01-30T10:24:27.212Z,3.27
2023-01-30T10:26:56.772Z,3.20
2023-01-30T10:29:32.235Z,3.87
2023-01-30T10:32:08.839Z,4.43
2023-01-30T10:34:39.957Z,3.53
2023-01-30T10:37:11.268Z,4.20
2023-01-30T10:39:55.264Z,4.07
2023-01-30T10:42:30.284Z,3.83
2023-01-30T10:45:08.346Z,3.60
2023-01-30T10:47:50.567Z,3.83
2023-01-30T10:50:22.804Z,3.83
2023-01-30T10:53:01.247Z,3.30
2023-01-30T10:55:37.974Z,3.93
2023-01-30T10:58:16.529Z,2.90
2023-01-30T11:00:51.969Z,4.60
2023-01-30T11:03:26.052Z,3.77
2023-01-30T11:05:59.837Z,3.47
2023-01-30T11:08:37.391Z,4.10
2023-01-30T11:11:26.677Z,3.67
2023-01-30T11:14:08.957Z,3.90
2023-01-30T11:16:46.556Z,3.33
2023-01-30T11:19:20.281Z,3.40
2023-01-30T11:21:51.829Z,3.10
2023-01-30T11:24:31.709Z,2.97
2023-01-30T11:27:12.771Z,4.17
2023-01-30T11:29:41.729Z,4.13
2023-01-30T11:32:20.826Z,4.00
2023-01-30T11:35:05.237Z,3.33
2023-01-30T11:37:34.655Z,4.10
2023-01-30T11:40:14.049Z,2.93
2023-01-30T11:42:46.894Z,3.63
2023-01-30T11:45:18.139Z,3.80
2023-01-30T11:47:58.849Z,2.80
2023-01-30T11:50:49.527Z,3.03
2023-01-30T11:53:29.127Z,3.17
2023-01-30T11:56:05.707Z,3.40
2023-01-30T11:58:39.815Z,4.43
2023-01-30T12:01:11.478Z,2.73
2023-01-30T12:03:50.306Z,2.60
2023-01-30T12:06:30.133Z,2.80
2023-01-30T12:08:59.150Z,3.23
2023-01-30T12:11:33.642Z,3.70
2023-01-30T12:14:18.074Z,3.50
2023-01-30T12:16:57.425Z,3.83
2023-01-30T12:19:35.242Z,3.60
2023-01-30T12:22:11.981Z,2.80
2023-01-30T12:24:44.632Z,3.33
2023-01-30T12:27:21.056Z,3.17
2023-01-30T12:29:58.157Z,3.80
2023-01-30T12:32:32.669Z,4.10
2023-01-30T12:35:02.849Z,3.90
2023-01-30T12:37:44.791Z,3.40
2023-01-30T12:40:33.478Z,3.07
2023-01-30T12:43:34.789Z,5.47
2023-01-30T12:46:34.210Z,3.97
2023-01-30T12:49:29.595Z,4.40
2023-01-30T12:52:12.815Z,3.60
2023-01-30T12:57:45.702Z,3.70
2023-01-30T13:00:32.099Z,3.50
2023-01-30T13:03:18.694Z,3.67
2023-01-30T13:05:55.307Z,4.00
2023-01-30T13:11:01.352Z,3.90
2023-01-30T13:13:42.404Z,4.00
2023-01-30T13:16:19.423Z,3.60
2023-01-30T13:19:15.635Z,3.63
2023-01-30T13:21:50.798Z,3.50
2023-01-30T13:24:26.003Z,3.47
2023-01-30T13:26:59.352Z,3.30
2023-01-30T13:29:31.558Z,4.47
2023-01-30T13:32:13.688Z,3.53
2023-01-30T13:34:45.991Z,3.80
2023-01-30T13:37:16.879Z,3.67
2023-01-30T13:39:49.729Z,3.17
2023-01-30T13:42:44.773Z,3.20
2023-01-30T13:45:18.010Z,3.43
2023-01-30T13:48:01.887Z,3.90
2023-01-30T13:50:42.387Z,3.20
2023-01-30T13:53:16.422Z,3.17
2023-01-30T13:55:49.066Z,3.57
2023-01-30T13:58:36.254Z,3.70
2023-01-30T14:01:04.927Z,2.80
2023-01-30T14:03:34.003Z,3.60
2023-01-30T14:06:42.852Z,3.50
2023-01-30T14:09:29.715Z,2.67
2023-01-30T14:12:01.300Z,3.37
2023-01-30T14:14:34.257Z,4.07
2023-01-30T14:17:12.637Z,3.60
2023-01-30T14:19:58.730Z,3.73
2023-01-30T14:22:40.768Z,4.17
2023-01-30T14:25:49.494Z,4.90
2023-01-30T14:28:53.798Z,4.00
2023-01-30T14:31:50.785Z,4.63
2023-01-30T14:35:04.856Z,5.00
2023-01-30T14:38:19.147Z,4.67
2023-01-30T14:41:25.608Z,4.43
2023-01-30T14:43:57.885Z,4.50
2023-01-30T14:46:54.964Z,5.53
2023-01-30T14:49:34.313Z,5.43
2023-01-30T14:52:04.462Z,4.23
2023-01-30T14:54:42.265Z,5.00
2023-01-30T14:57:24.387Z,4.67
2023-01-30T15:00:13.399Z,4.07
2023-01-30T15:02:49.591Z,3.53
2023-01-30T15:05:22.334Z,4.73
2023-01-30T15:07:52.942Z,3.60
2023-01-30T15:10:42.872Z,3.10
2023-01-30T15:13:51.560Z,3.63
2023-01-30T15:16:44.037Z,3.30
2023-01-30T15:19:30.678Z,3.30
2023-01-30T15:22:11.889Z,3.17
2023-01-30T15:25:15.755Z,3.73
2023-01-30T15:27:56.230Z,2.87
2023-01-30T15:30:45.922Z,3.70
2023-01-30T15:33:29.211Z,3.20
2023-01-30T15:36:05.203Z,3.40
2023-01-30T15:38:35.953Z,3.60
2023-01-30T15:41:06.653Z,3.10
2023-01-30T15:44:00.553Z,3.20
2023-01-30T15:46:39.999Z,3.60
2023-01-30T15:49:49.448Z,5.53
2023-01-30T15:52:43.759Z,4.50
2023-01-30T15:55:21.084Z,4.10
2023-01-30T15:57:58.172Z,3.93
2023-01-30T16:00:30.052Z,4.73
2023-01-30T16:02:59.985Z,3.90
2023-01-30T16:05:29.603Z,4.80
2023-01-30T16:07:59.257Z,4.07
2023-01-30T16:10:32.433Z,3.63
2023-01-30T16:13:06.235Z,4.10
2023-01-30T16:15:42.042Z,2.97
2023-01-30T16:18:20.268Z,4.30
2023-01-30T16:21:01.695Z,4.90
2023-01-30T16:23:35.761Z,4.43
2023-01-30T16:26:10.473Z,4.57
2023-01-30T16:28:39.263Z,4.63
2023-01-30T16:31:09.783Z,4.50
2023-01-30T16:33:39.521Z,5.43
2023-01-30T16:36:30.161Z,5.47
2023-01-30T16:38:58.404Z,4.60
2023-01-30T16:41:53.056Z,4.80
2023-01-30T16:44:27.170Z,4.60
2023-01-30T16:47:05.251Z,4.70
2023-01-30T16:49:43.723Z,3.90
2023-01-30T16:52:21.250Z,4.40
2023-01-30T16:54:51.652Z,5.07
2023-01-30T16:57:36.700Z,4.17
2023-01-30T17:00:21.709Z,4.60
2023-01-30T17:02:54.191Z,4.60
2023-01-30T17:05:24.372Z,5.00
2023-01-30T17:07:54.199Z,5.20
2023-01-30T17:10:53.563Z,5.47
2023-01-30T17:13:33.143Z,5.60
2023-01-30T17:16:27.740Z,4.70
2023-01-30T17:18:58.457Z,4.80
2023-01-30T17:21:30.741Z,5.10
2023-01-30T17:24:01.326Z,5.10
2023-01-30T17:26:30.756Z,4.20
2023-01-30T17:29:00.521Z,4.13
2023-01-30T17:31:28.517Z,4.13
2023-01-30T17:33:56.497Z,5.77
2023-01-30T17:36:27.880Z,4.70
2023-01-30T17:38:56.192Z,5.80
2023-01-30T17:41:26.671Z,5.33
2023-01-30T17:43:54.840Z,3.97
2023-01-30T17:46:28.748Z,4.07
2023-01-30T17:48:56.683Z,3.93
2023-01-30T17:51:24.698Z,4.77
2023-01-30T17:53:53.113Z,4.20
2023-01-30T17:56:32.158Z,4.50
2023-01-30T17:59:00.209Z,3.80
2023-01-30T18:01:29.814Z,4.50
2023-01-30T18:03:57.829Z,4.77
2023-01-30T18:06:27.112Z,3.80
2023-01-30T18:08:55.018Z,4.57
2023-01-30T18:11:23.544Z,2.97
2023-01-30T18:13:51.750Z,3.07
2023-01-30T18:16:23.718Z,4.23
2023-01-30T18:18:53.355Z,3.80
2023-01-30T18:21:22.628Z,3.50
2023-01-30T18:23:50.705Z,4.00
2023-01-30T18:26:19.824Z,4.00
2023-01-30T18:28:48.081Z,3.20
2023-01-30T18:31:16.663Z,3.90
2023-01-30T18:33:45.644Z,3.70
2023-01-30T18:36:16.946Z,3.63
2023-01-30T18:38:45.068Z,3.93
2023-01-30T18:41:17.107Z,3.20
2023-01-30T18:43:45.781Z,3.70
2023-01-30T18:46:15.549Z,3.30
2023-01-30T18:48:44.203Z,2.77
2023-01-30T18:51:14.844Z,2.83
2023-01-30T18:53:43.548Z,2.50
2023-01-30T18:56:13.705Z,3.43
2023-01-30T18:58:45.852Z,3.17
2023-01-30T19:01:16.017Z,3.40
2023-01-30T19:03:47.898Z,3.07
2023-01-30T19:06:19.369Z,3.50
2023-01-30T19:08:47.426Z,3.73
2023-01-30T19:11:35.184Z,4.13
2023-01-30T19:14:03.508Z,3.53
2023-01-30T19:16:33.172Z,2.80
2023-01-30T19:19:01.520Z,3.50
2023-01-30T19:21:31.126Z,3.43
2023-01-30T19:23:59.620Z,3.17
2023-01-30T19:26:30.471Z,3.00
2023-01-30T19:28:58.605Z,3.40
2023-01-30T19:31:29.805Z,4.17
2023-01-30T19:34:00.963Z,4.17
2023-01-30T19:36:34.820Z,3.37
2023-01-30T19:39:04.407Z,3.50
2023-01-30T19:41:34.620Z,3.63
2023-01-30T19:44:04.790Z,3.50
2023-01-30T19:49:46.365Z,4.43
2023-01-30T19:54:50.817Z,3.73
2023-01-30T19:57:19.192Z,3.37
2023-01-30T19:59:49.195Z,3.80
2023-01-30T20:02:17.573Z,4.87
2023-01-30T20:04:45.838Z,3.70
2023-01-30T20:11:07.179Z,4.20
2023-01-30T20:13:37.631Z,3.87
2023-01-30T20:16:08.300Z,4.10
2023-01-30T20:18:38.231Z,3.83
2023-01-30T20:21:12.859Z,4.00
2023-01-30T20:23:43.151Z,4.83
2023-01-30T20:26:15.110Z,3.80
2023-01-30T20:28:43.749Z,5.00
2023-01-30T20:31:13.751Z,4.50
2023-01-30T20:33:42.476Z,4.50
2023-01-30T20:36:12.446Z,4.67
2023-01-30T20:38:44.624Z,4.87
2023-01-30T20:41:16.429Z,4.67
2023-01-30T20:43:46.986Z,5.00
2023-01-30T20:46:17.341Z,3.83
2023-01-30T20:48:45.537Z,4.53
2023-01-30T20:51:15.674Z,3.63
2023-01-30T20:53:48.625Z,5.13
2023-01-30T20:56:18.151Z,4.20
2023-01-30T20:58:46.572Z,4.80
2023-01-30T21:01:18.333Z,4.37
2023-01-30T21:03:49.112Z,4.13
2023-01-30T21:06:41.588Z,4.10
2023-01-30T21:09:06.953Z,5.80
2023-01-30T21:11:37.029Z,5.07
2023-01-30T21:14:06.067Z,4.10
2023-01-30T21:16:39.650Z,5.00
2023-01-30T21:19:23.485Z,4.17
2023-01-30T21:21:55.637Z,25.40
2023-01-30T21:24:26.020Z,5.60
2023-01-30T21:26:59.266Z,3.63
2023-01-30T21:29:29.505Z,4.23
2023-01-30T21:31:59.140Z,4.00
2023-01-30T21:34:27.650Z,4.33
2023-01-30T21:37:13.114Z,3.93
2023-01-30T21:40:00.221Z,4.57
2023-01-30T21:42:47.426Z,5.10
2023-01-30T21:45:15.893Z,3.90
2023-01-30T21:47:44.041Z,4.57
2023-01-30T21:50:14.679Z,4.33
2023-01-30T21:52:42.963Z,4.03
2023-01-30T21:55:13.439Z,4.67
2023-01-30T21:57:46.702Z,3.73
2023-01-30T22:00:35.650Z,4.03
2023-01-30T22:03:04.156Z,4.20
2023-01-30T22:05:36.557Z,4.13
2023-01-30T22:08:11.281Z,4.10
2023-01-30T22:10:40.160Z,4.47
2023-01-30T22:13:09.816Z,4.17
2023-01-30T22:15:39.847Z,4.00
2023-01-30T22:18:08.567Z,4.30
2023-01-30T22:20:37.300Z,4.27
2023-01-30T22:23:08.725Z,4.43
2023-01-30T22:25:43.831Z,4.93
2023-01-30T22:28:16.318Z,4.17
2023-01-30T22:30:44.703Z,4.40
2023-01-30T22:33:15.576Z,4.97
2023-01-30T22:35:51.173Z,4.43
2023-01-30T22:38:24.904Z,5.23
2023-01-30T22:41:01.127Z,4.87
2023-01-30T22:43:31.863Z,4.30
2023-01-30T22:46:01.733Z,5.53
2023-01-30T22:48:30.780Z,4.70
2023-01-30T22:51:04.073Z,4.30
2023-01-30T22:53:37.143Z,4.03
2023-01-30T22:56:07.330Z,4.37
2023-01-30T22:58:37.327Z,4.90
2023-01-30T23:01:09.476Z,4.20
2023-01-30T23:03:39.457Z,4.37
2023-01-30T23:06:13.813Z,4.17
2023-01-30T23:08:44.995Z,4.67
2023-01-30T23:11:17.451Z,3.70
2023-01-30T23:13:52.138Z,4.03
2023-01-30T23:16:22.561Z,3.60
2023-01-30T23:18:56.196Z,4.57
2023-01-30T23:21:25.603Z,4.63
2023-01-30T23:23:55.356Z,3.63
2023-01-30T23:26:25.038Z,4.83
2023-01-30T23:28:55.113Z,3.70
2023-01-30T23:31:25.141Z,3.63
2023-01-30T23:33:55.836Z,3.87
2023-01-30T23:36:24.436Z,4.87
2023-01-30T23:38:54.598Z,4.90
2023-01-30T23:41:24.485Z,5.03
2023-01-30T23:43:56.083Z,4.43
2023-01-30T23:46:26.607Z,4.00
2023-01-30T23:48:59.816Z,4.80
2023-01-30T23:51:29.509Z,5.03
2023-01-30T23:53:58.141Z,4.07
2023-01-30T23:56:29.615Z,4.47
2023-01-30T23:59:01.451Z,5.20
